Time;durP1;ratioP1;P1;durP2;ratioP2;P2;SDS_P1;SDS_P2;PMS_P1;PMS_P2;Temp;Humidity;BMP_temperature;BMP_pressure;BME280_temperature;BME280_humidity;BME280_pressure;Samples;Min_cycle;Max_cycle;Signal;HPM_P1;HPM_P2
2022/08/11 00:02:27;;;;;;;1.33;1.23;;;26.50;65.80;;;;;;4957533;29;20462;-90
2022/08/11 00:04:56;;;;;;;1.13;0.97;;;26.50;65.70;;;;;;4957159;29;20501;-91
2022/08/11 00:07:24;;;;;;;2.33;1.40;;;26.50;65.70;;;;;;4957214;29;21017;-91
2022/08/11 00:09:52;;;;;;;1.50;1.40;;;26.50;65.70;;;;;;4957096;29;20533;-90
2022/08/11 00:12:20;;;;;;;1.50;1.27;;;26.50;65.70;;;;;;4957400;29;20486;-90
2022/08/11 00:14:58;;;;;;;1.97;1.33;;;26.50;65.80;;;;;;4957212;29;20453;-90
2022/08/11 00:18:02;;;;;;;2.70;1.07;;;26.50;65.60;;;;;;4957644;29;20850;-90
2022/08/11 00:20:32;;;;;;;1.20;1.10;;;26.50;65.60;;;;;;4957047;29;20577;-90
2022/08/11 00:23:06;;;;;;;1.13;1.00;;;26.50;65.80;;;;;;4957084;29;20442;-90
2022/08/11 00:25:38;;;;;;;1.30;1.20;;;26.50;66.60;;;;;;4956836;29;20431;-90
2022/08/11 00:28:22;;;;;;;1.30;1.20;;;26.50;65.60;;;;;;4956497;28;20852;-90
2022/08/11 00:30:51;;;;;;;1.17;1.07;;;26.50;65.60;;;;;;4956987;29;20430;-90
2022/08/11 00:33:20;;;;;;;1.40;1.30;;;26.50;65.60;;;;;;4956610;29;20454;-91
2022/08/11 00:35:49;;;;;;;1.63;1.20;;;26.50;65.50;;;;;;4956821;29;20506;-90
2022/08/11 00:38:17;;;;;;;1.50;1.20;;;26.50;65.50;;;;;;4957666;29;20537;-90
2022/08/11 00:40:50;;;;;;;1.37;1.20;;;26.50;65.40;;;;;;4956524;29;20850;-90
2022/08/11 00:43:22;;;;;;;1.40;1.30;;;26.50;65.40;;;;;;4956719;29;20458;-90
2022/08/11 00:46:13;;;;;;;1.30;1.07;;;26.50;65.40;;;;;;4956902;29;20937;-90
2022/08/11 00:48:50;;;;;;;1.40;1.30;;;26.50;65.20;;;;;;4956461;29;20517;-90
2022/08/11 00:51:36;;;;;;;1.40;1.30;;;26.50;65.30;;;;;;4956813;29;20492;-90
2022/08/11 00:54:18;;;;;;;1.23;1.13;;;26.50;65.30;;;;;;4957023;29;20435;-90
2022/08/11 00:57:21;;;;;;;1.50;1.20;;;26.50;65.40;;;;;;4956463;29;20465;-90
2022/08/11 01:00:12;;;;;;;1.27;1.17;;;26.50;65.30;;;;;;4925503;29;20579;-90
2022/08/11 01:02:48;;;;;;;1.10;1.00;;;26.50;65.30;;;;;;4956415;29;20436;-90
2022/08/11 01:05:34;;;;;;;1.30;1.20;;;26.50;65.40;;;;;;4956295;29;20485;-91
2022/08/11 01:08:41;;;;;;;1.70;1.30;;;26.50;65.40;;;;;;4955929;29;21009;-90
2022/08/11 01:11:34;;;;;;;1.30;1.10;;;26.50;65.30;;;;;;4956306;29;20445;-90
2022/08/11 01:14:37;;;;;;;1.10;1.00;;;26.50;65.30;;;;;;4955927;29;20458;-90
2022/08/11 01:17:34;;;;;;;1.30;1.17;;;26.50;65.30;;;;;;4955935;29;20970;-90
2022/08/11 01:20:15;;;;;;;1.50;1.40;;;26.50;65.30;;;;;;4956004;29;20486;-91
2022/08/11 01:23:31;;;;;;;1.33;1.23;;;26.50;65.30;;;;;;4955766;29;20426;-91
2022/08/11 01:26:57;;;;;;;1.30;1.20;;;26.50;65.20;;;;;;4921396;29;20473;-91
2022/08/11 01:30:18;;;;;;;1.40;1.30;;;26.40;65.10;;;;;;4955780;29;20525;-91
2022/08/11 01:33:26;;;;;;;1.50;1.40;;;26.40;65.10;;;;;;4905484;29;20458;-91
2022/08/11 01:36:39;;;;;;;1.20;1.10;;;26.50;65.20;;;;;;4955421;29;21007;-90
2022/08/11 01:39:51;;;;;;;1.27;1.17;;;26.40;65.20;;;;;;4955376;29;20529;-91
2022/08/11 01:45:50;;;;;;;1.40;1.30;;;26.50;65.30;;;;;;4955721;29;20462;-90
2022/08/11 01:48:26;;;;;;;1.40;1.30;;;26.40;65.20;;;;;;4955545;29;20458;-90
2022/08/11 01:51:08;;;;;;;1.30;1.20;;;26.40;65.20;;;;;;4955426;29;21053;-90
2022/08/11 01:53:51;;;;;;;1.50;1.33;;;26.40;65.10;;;;;;4949446;29;20462;-90
2022/08/11 01:56:33;;;;;;;1.70;1.33;;;26.40;65.10;;;;;;4955669;29;20481;-90
2022/08/11 01:59:09;;;;;;;1.23;1.13;;;26.50;65.20;;;;;;4955376;29;20924;-90
2022/08/11 02:01:52;;;;;;;1.30;1.20;;;26.40;65.10;;;;;;4955545;29;20474;-90
2022/08/11 02:04:29;;;;;;;1.23;1.13;;;26.50;65.20;;;;;;4955548;29;20571;-90
2022/08/11 02:07:04;;;;;;;1.40;1.30;;;26.50;65.20;;;;;;4955627;29;20435;-90
2022/08/11 02:09:51;;;;;;;1.30;1.20;;;26.40;65.10;;;;;;4955623;29;20458;-90
2022/08/11 02:12:31;;;;;;;1.00;0.90;;;26.50;65.20;;;;;;4955497;29;20786;-91
2022/08/11 02:15:07;;;;;;;1.73;1.17;;;26.50;65.20;;;;;;4955531;29;20505;-90
2022/08/11 02:17:47;;;;;;;1.10;1.00;;;26.50;65.20;;;;;;4955213;29;20434;-90
2022/08/11 02:23:39;;;;;;;1.40;1.30;;;26.50;65.20;;;;;;4955567;29;20422;-90
2022/08/11 02:26:14;;;;;;;1.23;1.13;;;26.50;65.30;;;;;;4955557;29;20446;-90
2022/08/11 02:28:59;;;;;;;1.53;1.37;;;26.40;65.20;;;;;;4955247;29;20434;-90
2022/08/11 02:34:36;;;;;;;1.67;1.40;;;26.40;65.20;;;;;;4955384;29;20547;-90
2022/08/11 02:37:15;;;;;;;1.30;1.20;;;26.40;65.20;;;;;;4955120;29;20430;-91
2022/08/11 02:39:53;;;;;;;1.23;1.00;;;26.40;65.20;;;;;;4955002;29;20897;-91
2022/08/11 02:42:30;;;;;;;1.40;1.30;;;26.50;65.20;;;;;;4955253;29;20445;-90
2022/08/11 02:45:29;;;;;;;1.20;1.10;;;26.40;65.10;;;;;;4955342;29;20465;-90
2022/08/11 02:50:57;;;;;;;1.20;1.10;;;26.40;65.20;;;;;;4954798;28;20822;-90
2022/08/11 02:53:30;;;;;;;1.20;1.10;;;26.40;65.30;;;;;;4958773;29;20520;-90
2022/08/11 02:56:07;;;;;;;1.20;1.10;;;26.40;65.20;;;;;;4958852;29;20517;-90
2022/08/11 02:58:41;;;;;;;1.40;1.30;;;26.50;65.40;;;;;;4958639;29;20798;-90
2022/08/11 03:01:27;;;;;;;1.50;1.40;;;26.50;65.30;;;;;;4958935;29;20568;-90
2022/08/11 03:04:01;;;;;;;1.20;1.10;;;26.50;65.20;;;;;;4958750;29;20526;-89
2022/08/11 03:06:36;;;;;;;1.60;1.20;;;26.40;65.10;;;;;;4958633;29;20474;-89
2022/08/11 03:09:09;;;;;;;1.20;1.10;;;26.40;65.10;;;;;;4958259;29;20481;-90
2022/08/11 03:17:32;;;;;;;1.37;1.27;;;26.40;65.20;;;;;;4958330;29;20418;-90
2022/08/11 03:20:34;;;;;;;1.07;0.97;;;26.40;65.20;;;;;;4958335;29;20865;-90
2022/08/11 03:23:08;;;;;;;1.87;1.20;;;26.50;65.20;;;;;;4958109;29;20814;-90
2022/08/11 03:25:45;;;;;;;1.40;1.30;;;26.40;65.10;;;;;;4958310;29;20449;-89
2022/08/11 03:28:27;;;;;;;2.13;1.30;;;26.50;65.20;;;;;;4958306;29;20442;-90
2022/08/11 03:31:04;;;;;;;1.27;1.17;;;26.40;65.10;;;;;;4957893;29;20435;-91
2022/08/11 03:37:10;;;;;;;1.30;1.17;;;26.40;65.10;;;;;;4950883;29;20462;-90
2022/08/11 03:39:48;;;;;;;1.70;1.40;;;26.40;65.00;;;;;;4959037;29;20438;-90
2022/08/11 03:42:25;;;;;;;1.17;1.03;;;26.50;65.20;;;;;;4958603;29;20447;-91
2022/08/11 03:45:28;;;;;;;1.60;1.13;;;26.40;65.10;;;;;;4958053;29;20434;-89
2022/08/11 03:48:09;;;;;;;1.40;1.30;;;26.50;65.10;;;;;;4957649;29;20953;-90
2022/08/11 03:50:56;;;;;;;1.50;1.40;;;26.40;65.20;;;;;;4957882;29;20490;-91
2022/08/11 03:53:45;;;;;;;1.40;1.30;;;26.50;65.30;;;;;;4957670;29;20477;-90
2022/08/11 03:56:49;;;;;;;2.57;1.10;;;26.50;65.20;;;;;;4957657;29;20456;-90
2022/08/11 03:59:51;;;;;;;1.20;1.10;;;26.50;65.20;;;;;;4957389;29;20497;-91
2022/08/11 04:02:41;;;;;;;1.20;1.10;;;26.40;65.20;;;;;;4957483;29;20488;-91
2022/08/11 04:05:41;;;;;;;1.20;1.10;;;26.40;65.20;;;;;;4957047;29;20554;-90
2022/08/11 04:09:06;;;;;;;1.43;1.33;;;26.40;65.20;;;;;;4957459;29;20510;-90
2022/08/11 04:11:51;;;;;;;1.20;1.10;;;26.40;65.20;;;;;;4917287;29;20479;-90
2022/08/11 04:18:20;;;;;;;1.50;1.40;;;26.40;65.20;;;;;;4957431;29;20414;-91
2022/08/11 04:21:26;;;;;;;1.43;1.33;;;26.40;65.30;;;;;;4918271;29;20483;-89
2022/08/11 04:24:09;;;;;;;1.40;1.27;;;26.40;65.30;;;;;;4959783;29;20442;-90
2022/08/11 04:27:01;;;;;;;1.77;1.20;;;26.40;66.20;;;;;;4958605;29;20469;-90
2022/08/11 04:29:46;;;;;;;1.20;1.10;;;26.40;65.40;;;;;;4957059;28;20530;-90
2022/08/11 04:32:36;;;;;;;1.40;1.30;;;26.40;65.40;;;;;;4956891;29;20434;-90
2022/08/11 04:35:19;;;;;;;1.20;1.10;;;26.40;65.40;;;;;;4956580;29;20474;-89
2022/08/11 04:38:23;;;;;;;1.40;1.30;;;26.40;65.30;;;;;;4956966;29;20466;-89
2022/08/11 04:41:13;;;;;;;1.37;1.23;;;26.40;65.20;;;;;;4956635;29;20556;-89
2022/08/11 04:44:44;;;;;;;1.40;1.30;;;26.30;65.20;;;;;;4956862;29;20441;-90
2022/08/11 05:03:13;;;;;;;1.40;1.10;;;26.40;65.40;;;;;;4956514;29;20426;-89
2022/08/11 05:06:07;;;;;;;1.10;1.00;;;26.40;65.40;;;;;;4956279;29;20509;-90
2022/08/11 05:09:11;;;;;;;1.70;1.13;;;26.40;65.60;;;;;;4956404;29;20434;-90
2022/08/11 05:12:25;;;;;;;1.77;1.67;;;26.40;65.40;;;;;;4956488;29;20521;-90
2022/08/11 05:37:19;;;;;;;1.20;1.10;;;26.30;65.40;;;;;;4955973;29;20414;-90
2022/08/11 05:56:44;;;;;;;2.97;2.77;;;26.20;63.60;;;;;;4956618;29;20466;-94
2022/08/11 05:59:18;;;;;;;4.33;2.40;;;26.20;63.70;;;;;;4957361;29;20430;-91
2022/08/11 06:01:46;;;;;;;3.33;2.30;;;26.10;63.40;;;;;;4957788;29;20517;-93
2022/08/11 06:04:18;;;;;;;6.67;2.13;;;26.10;63.30;;;;;;4956921;29;20462;-92
2022/08/11 06:06:55;;;;;;;4.23;2.07;;;26.10;63.50;;;;;;4957273;28;20542;-93
2022/08/11 06:09:29;;;;;;;4.73;2.50;;;26.10;63.60;;;;;;4957051;29;20440;-93
2022/08/11 06:11:59;;;;;;;5.60;2.47;;;26.10;63.40;;;;;;4957097;28;20477;-94
2022/08/11 06:14:28;;;;;;;2.90;2.47;;;26.00;63.40;;;;;;4948891;29;20927;-90
2022/08/11 06:16:59;;;;;;;2.97;2.30;;;26.00;63.30;;;;;;4955905;29;20986;-92
2022/08/11 06:19:33;;;;;;;4.80;2.90;;;26.00;63.60;;;;;;4956071;29;20441;-90
2022/08/11 06:22:03;;;;;;;2.80;2.43;;;26.00;64.40;;;;;;4955912;29;20614;-94
2022/08/11 06:24:38;;;;;;;9.83;2.40;;;26.00;63.60;;;;;;4955704;28;20546;-94
2022/08/11 06:27:06;;;;;;;1.90;1.70;;;26.00;63.60;;;;;;4957378;28;20469;-93
2022/08/11 06:29:40;;;;;;;3.73;1.93;;;26.00;63.60;;;;;;4959303;29;20449;-94
2022/08/11 06:32:12;;;;;;;5.10;2.27;;;26.00;63.70;;;;;;4959609;29;20496;-91
2022/08/11 06:34:53;;;;;;;3.87;3.00;;;26.00;64.00;;;;;;4959541;29;20462;-94
2022/08/11 06:37:25;;;;;;;5.63;2.67;;;26.00;64.00;;;;;;4959034;29;20537;-94
2022/08/11 06:40:04;;;;;;;2.63;2.43;;;26.00;64.00;;;;;;4959215;29;20430;-90
2022/08/11 06:42:54;;;;;;;2.30;2.10;;;26.00;63.80;;;;;;4959159;29;20485;-93
2022/08/11 06:45:30;;;;;;;4.63;2.30;;;26.10;63.80;;;;;;4942160;29;20948;-91
2022/08/11 06:47:59;;;;;;;2.57;1.90;;;26.10;63.90;;;;;;4959443;29;20471;-92
2022/08/11 06:53:17;;;;;;;4.80;2.17;;;26.00;63.80;;;;;;4958817;29;20921;-93
2022/08/11 07:01:27;;;;;;;2.43;1.83;;;26.00;63.90;;;;;;4959071;29;20473;-93
2022/08/11 07:04:02;;;;;;;3.60;2.60;;;26.10;64.10;;;;;;4958501;29;20521;-90
2022/08/11 07:06:44;;;;;;;3.10;2.20;;;26.10;64.20;;;;;;4959165;29;20820;-90
2022/08/11 07:15:43;;;;;;;1.87;1.77;;;26.20;64.40;;;;;;4960039;29;21028;-89
2022/08/11 07:30:08;;;;;;;2.63;1.70;;;26.20;65.40;;;;;;4898625;29;20481;-88
2022/08/11 07:32:41;;;;;;;1.80;1.70;;;26.20;65.50;;;;;;4931352;29;20455;-90
2022/08/11 07:35:13;;;;;;;2.87;1.90;;;26.20;65.40;;;;;;4938123;29;20475;-89
2022/08/11 07:37:43;;;;;;;4.10;1.90;;;26.20;65.40;;;;;;4937546;29;20539;-88
2022/08/11 07:40:11;;;;;;;2.57;2.00;;;26.20;65.30;;;;;;4938105;29;20947;-88
2022/08/11 07:42:45;;;;;;;2.23;1.70;;;26.20;65.30;;;;;;4938234;29;20857;-88
2022/08/11 07:53:31;;;;;;;2.73;1.73;;;26.20;65.60;;;;;;4951392;29;20438;-88
2022/08/11 08:18:12;;;;;;;2.00;1.77;;;26.20;65.40;;;;;;4938373;29;20463;-90
2022/08/11 08:20:44;;;;;;;4.23;2.07;;;26.20;65.50;;;;;;4938105;29;20875;-90
2022/08/11 08:23:12;;;;;;;2.17;1.97;;;26.20;65.60;;;;;;4945769;29;20454;-94
2022/08/11 08:25:43;;;;;;;3.60;1.90;;;26.20;65.70;;;;;;4938631;29;20871;-94
2022/08/11 08:28:12;;;;;;;2.90;1.90;;;26.30;65.70;;;;;;4956418;29;20434;-86
2022/08/11 08:30:46;;;;;;;8.30;2.30;;;26.30;65.80;;;;;;4957239;29;20446;-91
2022/08/11 08:33:15;;;;;;;3.07;1.90;;;26.30;65.80;;;;;;4956155;28;20458;-90
2022/08/11 08:35:44;;;;;;;4.17;2.17;;;26.30;65.80;;;;;;4955956;29;20469;-94
2022/08/11 08:38:11;;;;;;;4.90;2.83;;;26.30;65.80;;;;;;4955459;29;20477;-87
2022/08/11 08:40:43;;;;;;;5.07;2.00;;;26.30;65.80;;;;;;4955916;29;21339;-87
2022/08/11 08:43:16;;;;;;;6.97;2.73;;;26.30;65.80;;;;;;4956488;29;20451;-87
2022/08/11 08:45:44;;;;;;;2.07;1.87;;;26.30;65.90;;;;;;4954906;29;20446;-87
2022/08/11 08:48:15;;;;;;;2.60;2.40;;;26.40;66.10;;;;;;4955013;29;20446;-86
2022/08/11 08:53:36;;;;;;;3.47;2.07;;;26.40;66.10;;;;;;4936060;29;20468;-92
2022/08/11 08:56:07;;;;;;;3.23;2.07;;;26.30;66.10;;;;;;4956664;29;20537;-82
2022/08/11 08:58:36;;;;;;;4.07;2.20;;;26.40;66.40;;;;;;4939090;29;20439;-85
2022/08/11 09:01:03;;;;;;;2.67;1.70;;;26.30;66.60;;;;;;4936284;29;20482;-85
2022/08/11 09:03:32;;;;;;;3.93;2.67;;;26.40;66.90;;;;;;4936858;29;20566;-85
2022/08/11 09:05:59;;;;;;;3.00;2.70;;;26.40;67.00;;;;;;4936577;29;20489;-84
2022/08/11 09:08:28;;;;;;;4.17;2.30;;;26.30;66.80;;;;;;4936789;29;20542;-84
2022/08/11 09:13:57;;;;;;;2.17;1.93;;;26.40;66.70;;;;;;4911862;29;20807;-84
2022/08/11 09:16:25;;;;;;;2.23;1.67;;;26.40;66.70;;;;;;4915022;29;20444;-93
2022/08/11 09:18:53;;;;;;;3.23;2.27;;;26.40;66.70;;;;;;4924322;29;20538;-84
2022/08/11 09:21:21;;;;;;;2.83;2.07;;;26.40;66.80;;;;;;4935824;29;20561;-90
2022/08/11 09:29:23;;;;;;;2.43;2.17;;;26.40;66.80;;;;;;4936383;29;20439;-84
2022/08/11 09:31:52;;;;;;;1.87;1.77;;;26.40;66.90;;;;;;4936314;29;20820;-84
2022/08/11 09:34:19;;;;;;;2.50;2.10;;;26.40;67.00;;;;;;4936110;29;21038;-84
2022/08/11 09:42:21;;;;;;;3.10;2.23;;;26.40;67.00;;;;;;4936533;29;20490;-85
2022/08/11 09:44:51;;;;;;;2.43;2.00;;;26.40;67.00;;;;;;4936570;29;20499;-90
2022/08/11 09:47:22;;;;;;;2.20;2.00;;;26.40;67.10;;;;;;4936239;29;20510;-85
2022/08/11 09:49:52;;;;;;;2.73;2.50;;;26.40;67.10;;;;;;4935798;29;20447;-84
2022/08/11 09:52:20;;;;;;;2.40;2.00;;;26.40;67.10;;;;;;4935963;29;20451;-94
2022/08/11 09:54:49;;;;;;;2.00;1.90;;;26.40;67.10;;;;;;4935588;29;20447;-85
2022/08/11 10:00:07;;;;;;;2.10;1.90;;;26.50;67.10;;;;;;4936034;29;20562;-85
2022/08/11 10:02:39;;;;;;;2.47;1.93;;;26.40;67.10;;;;;;4935098;29;20499;-85
2022/08/11 10:07:54;;;;;;;2.53;2.33;;;26.50;67.20;;;;;;4936151;29;20559;-85
2022/08/11 10:10:22;;;;;;;3.30;2.50;;;26.50;67.20;;;;;;4936080;29;20503;-86
2022/08/11 10:12:52;;;;;;;3.17;1.87;;;26.40;67.10;;;;;;4936445;29;20443;-86
2022/08/11 10:15:36;;;;;;;2.90;1.90;;;26.40;67.10;;;;;;4936192;29;20866;-86
2022/08/11 10:20:54;;;;;;;2.60;2.10;;;26.40;67.20;;;;;;4935977;29;20803;-85
2022/08/11 10:28:53;;;;;;;2.93;2.17;;;26.40;67.20;;;;;;4935737;29;20423;-84
2022/08/11 10:34:08;;;;;;;2.50;1.80;;;26.40;67.10;;;;;;4935525;29;20511;-84
2022/08/11 10:36:43;;;;;;;2.97;1.80;;;26.50;67.10;;;;;;4935428;29;20543;-85
2022/08/11 10:39:14;;;;;;;3.40;1.83;;;26.50;67.10;;;;;;4935619;29;20439;-85
2022/08/11 10:44:26;;;;;;;3.10;1.70;;;26.50;67.10;;;;;;4935813;29;20439;-85
2022/08/11 10:49:40;;;;;;;2.30;2.03;;;26.50;67.00;;;;;;4935476;29;20419;-85
2022/08/11 11:00:23;;;;;;;2.47;2.37;;;26.40;67.70;;;;;;4935881;29;20898;-85
2022/08/11 11:02:52;;;;;;;2.20;2.03;;;26.40;67.80;;;;;;4935439;29;20501;-84
2022/08/11 11:05:24;;;;;;;2.53;1.70;;;26.50;67.00;;;;;;4935742;29;20455;-85
2022/08/11 11:07:59;;;;;;;2.17;1.93;;;26.50;66.90;;;;;;4935582;29;20454;-85
2022/08/11 11:10:26;;;;;;;2.07;1.87;;;26.50;66.90;;;;;;4935895;29;20447;-85
2022/08/11 11:18:34;;;;;;;1.93;1.80;;;26.50;66.90;;;;;;4938915;29;20918;-85
2022/08/11 11:21:05;;;;;;;1.80;1.70;;;26.50;66.90;;;;;;4939056;29;20439;-85
2022/08/11 11:23:38;;;;;;;1.83;1.73;;;26.50;66.90;;;;;;4938792;29;21028;-85
2022/08/11 11:26:23;;;;;;;2.83;1.77;;;26.50;66.80;;;;;;4938802;29;20451;-84
2022/08/11 11:29:29;;;;;;;2.80;2.20;;;26.50;66.80;;;;;;4938704;29;20482;-85
2022/08/11 11:32:17;;;;;;;1.97;1.87;;;26.50;66.70;;;;;;4936337;29;20473;-85
2022/08/11 11:35:18;;;;;;;2.23;2.00;;;26.50;66.80;;;;;;4938668;29;21461;-84
2022/08/11 11:37:49;;;;;;;1.70;1.60;;;26.50;66.80;;;;;;4916119;29;20529;-85
2022/08/11 11:40:20;;;;;;;3.47;1.73;;;26.50;66.90;;;;;;4938444;29;20448;-84
2022/08/11 11:42:48;;;;;;;1.70;1.60;;;26.50;66.80;;;;;;4938402;29;21014;-88
2022/08/11 11:45:17;;;;;;;2.10;1.90;;;26.50;66.80;;;;;;4938797;29;20874;-84
2022/08/11 11:47:45;;;;;;;2.70;2.50;;;26.50;66.90;;;;;;4938231;29;20462;-85
2022/08/11 11:50:13;;;;;;;2.07;1.97;;;26.50;66.80;;;;;;4938546;29;20451;-84
2022/08/11 11:52:43;;;;;;;4.30;1.70;;;26.50;66.80;;;;;;4938373;29;21010;-85
2022/08/11 11:55:10;;;;;;;3.77;2.23;;;26.50;66.70;;;;;;4938429;29;20482;-85
2022/08/11 12:03:16;;;;;;;2.30;2.20;;;26.50;66.90;;;;;;4914889;29;20550;-84
2022/08/11 12:05:44;;;;;;;2.10;1.90;;;26.50;66.80;;;;;;4938015;29;20451;-85
2022/08/11 12:08:15;;;;;;;1.53;1.43;;;26.50;66.80;;;;;;4938355;29;20443;-85
2022/08/11 12:10:45;;;;;;;1.70;1.60;;;26.50;66.80;;;;;;4937984;29;20454;-84
2022/08/11 12:16:02;;;;;;;1.93;1.73;;;26.50;66.80;;;;;;4937875;29;20423;-86
2022/08/11 12:18:33;;;;;;;2.70;2.00;;;26.50;66.90;;;;;;4937848;29;21010;-85
2022/08/11 12:21:01;;;;;;;1.50;1.40;;;26.50;66.80;;;;;;4938115;29;20442;-85
2022/08/11 12:29:04;;;;;;;1.60;1.50;;;26.50;66.80;;;;;;4937991;29;20989;-85
2022/08/11 12:31:32;;;;;;;1.70;1.50;;;26.50;66.80;;;;;;4937890;29;20446;-84
2022/08/11 12:34:04;;;;;;;2.37;1.87;;;26.50;66.80;;;;;;4937837;29;20475;-84
2022/08/11 12:36:35;;;;;;;1.80;1.70;;;26.50;66.80;;;;;;4937488;29;20443;-85
2022/08/11 12:39:07;;;;;;;1.57;1.47;;;26.50;66.80;;;;;;4937486;29;20490;-84
2022/08/11 12:47:10;;;;;;;1.80;1.70;;;26.50;66.70;;;;;;4937362;29;20573;-85
2022/08/11 12:52:34;;;;;;;1.70;1.60;;;26.50;66.80;;;;;;4937688;29;20452;-85
2022/08/11 12:55:05;;;;;;;1.67;1.43;;;26.50;66.80;;;;;;4937299;29;20538;-85
2022/08/11 13:05:55;;;;;;;2.07;1.90;;;26.50;66.90;;;;;;4937287;29;20868;-84
2022/08/11 13:08:23;;;;;;;1.80;1.70;;;26.50;66.90;;;;;;4937277;29;20454;-84
2022/08/11 13:13:39;;;;;;;1.60;1.50;;;26.50;66.80;;;;;;4937016;29;20563;-85
2022/08/11 13:16:06;;;;;;;1.50;1.40;;;26.60;66.90;;;;;;4936821;29;20469;-85
2022/08/11 13:18:34;;;;;;;1.67;1.57;;;26.50;66.70;;;;;;4936831;29;20482;-85
2022/08/11 13:21:02;;;;;;;1.67;1.50;;;26.60;66.80;;;;;;4936704;29;20475;-85
2022/08/11 13:23:29;;;;;;;1.90;1.80;;;26.50;66.70;;;;;;4936872;29;20487;-84
2022/08/11 13:25:58;;;;;;;1.77;1.67;;;26.60;66.80;;;;;;4936477;29;20451;-84
2022/08/11 13:28:25;;;;;;;1.70;1.60;;;26.60;66.70;;;;;;4936627;29;20447;-84
2022/08/11 13:31:10;;;;;;;1.53;1.43;;;26.60;66.70;;;;;;4936549;29;20457;-85
2022/08/11 13:33:41;;;;;;;1.50;1.40;;;26.60;66.70;;;;;;4936768;29;20951;-85
2022/08/11 13:36:09;;;;;;;2.00;1.90;;;26.60;66.70;;;;;;4935475;29;20470;-85
2022/08/11 13:38:37;;;;;;;2.17;1.83;;;26.60;66.80;;;;;;4936799;29;20961;-84
2022/08/11 13:41:36;;;;;;;1.73;1.63;;;26.60;66.70;;;;;;4936447;29;20450;-83
2022/08/11 13:43:54;;;;;;;2.57;2.37;;;26.60;66.70;;;;;;4936417;29;20517;-83
2022/08/11 13:46:23;;;;;;;2.80;2.00;;;26.60;66.70;;;;;;4936404;29;20534;-83
2022/08/11 13:48:51;;;;;;;2.27;1.67;;;26.60;66.70;;;;;;4936454;29;20474;-85
2022/08/11 13:51:32;;;;;;;1.97;1.87;;;26.60;66.70;;;;;;4936177;29;20542;-83
2022/08/11 13:54:01;;;;;;;1.90;1.80;;;26.60;66.60;;;;;;4936322;29;20447;-83
2022/08/11 13:56:31;;;;;;;2.43;1.53;;;26.60;66.60;;;;;;4936166;29;20443;-83
2022/08/11 13:58:59;;;;;;;1.80;1.70;;;26.60;66.60;;;;;;4936550;29;20453;-83
2022/08/11 14:01:30;;;;;;;1.70;1.60;;;26.60;66.60;;;;;;4936293;29;20570;-83
2022/08/11 14:04:04;;;;;;;1.60;1.50;;;26.60;66.60;;;;;;4936272;29;20501;-83
2022/08/11 14:06:31;;;;;;;1.80;1.70;;;26.60;66.60;;;;;;4936045;29;20447;-83
2022/08/11 14:08:59;;;;;;;1.50;1.40;;;26.60;66.60;;;;;;4936225;29;20542;-85
2022/08/11 14:14:20;;;;;;;1.63;1.53;;;26.60;66.50;;;;;;4936226;29;20856;-83
2022/08/11 14:16:48;;;;;;;1.40;1.30;;;26.60;66.60;;;;;;4936044;29;20549;-83
2022/08/11 14:19:17;;;;;;;1.50;1.40;;;26.60;66.60;;;;;;4935969;29;20539;-84
2022/08/11 14:24:30;;;;;;;1.70;1.60;;;26.60;66.50;;;;;;4936325;29;20562;-83
2022/08/11 14:26:57;;;;;;;1.50;1.40;;;26.60;66.60;;;;;;4936114;29;20469;-83
2022/08/11 14:29:28;;;;;;;1.40;1.30;;;26.60;66.60;;;;;;4935875;29;20539;-83
2022/08/11 14:31:57;;;;;;;1.67;1.57;;;26.60;66.70;;;;;;4936150;29;20493;-83
2022/08/11 14:34:28;;;;;;;1.90;1.63;;;26.70;66.70;;;;;;4935940;29;20970;-83
2022/08/11 14:36:57;;;;;;;1.50;1.40;;;26.60;66.60;;;;;;4936271;29;20867;-83
2022/08/11 14:39:26;;;;;;;2.60;1.73;;;26.60;66.60;;;;;;4936048;29;20448;-83
2022/08/11 14:47:34;;;;;;;1.73;1.63;;;26.60;67.50;;;;;;4937240;29;20431;-83
2022/08/11 14:50:02;;;;;;;1.67;1.43;;;26.60;66.70;;;;;;4940207;29;20443;-83
2022/08/11 14:52:33;;;;;;;1.73;1.63;;;26.60;66.60;;;;;;4939273;29;20545;-83
2022/08/11 14:57:47;;;;;;;1.57;1.47;;;26.70;66.60;;;;;;4939732;29;20498;-83
2022/08/11 15:00:17;;;;;;;1.73;1.63;;;26.60;66.60;;;;;;4939441;29;20478;-83
2022/08/11 15:05:31;;;;;;;1.63;1.53;;;26.60;66.60;;;;;;4939245;29;21027;-92
2022/08/11 15:07:59;;;;;;;1.47;1.37;;;26.60;66.60;;;;;;4939056;29;20442;-83
2022/08/11 15:10:26;;;;;;;1.40;1.30;;;26.70;66.70;;;;;;4939171;29;20982;-83
2022/08/11 15:12:54;;;;;;;1.53;1.43;;;26.60;66.70;;;;;;4938869;29;20470;-83
2022/08/11 15:18:12;;;;;;;1.80;1.70;;;26.70;66.60;;;;;;4939293;29;20423;-83
2022/08/11 15:26:11;;;;;;;1.63;1.53;;;26.60;66.60;;;;;;4939005;29;20423;-83
2022/08/11 15:45:49;;;;;;;1.50;1.37;;;26.60;66.60;;;;;;4861492;29;20430;-83
2022/08/11 15:48:24;;;;;;;1.73;1.63;;;26.60;66.50;;;;;;4909546;29;20451;-93
2022/08/11 15:50:54;;;;;;;1.57;1.47;;;26.60;66.50;;;;;;4938682;29;20529;-83
2022/08/11 15:53:27;;;;;;;1.57;1.47;;;26.60;66.50;;;;;;4938416;29;20545;-86
2022/08/11 15:55:55;;;;;;;1.80;1.70;;;26.60;66.40;;;;;;4938644;29;20454;-84
2022/08/11 16:04:11;;;;;;;1.43;1.33;;;26.70;66.50;;;;;;4937976;29;20478;-83
2022/08/11 16:06:44;;;;;;;1.93;1.70;;;26.60;66.40;;;;;;4940502;29;20478;-83
2022/08/11 16:09:13;;;;;;;2.23;1.67;;;26.60;66.40;;;;;;4938481;29;20531;-83
2022/08/11 16:11:41;;;;;;;1.70;1.60;;;26.60;66.30;;;;;;4938015;29;20934;-83
2022/08/11 16:16:57;;;;;;;1.40;1.30;;;26.60;67.10;;;;;;4937899;29;20934;-87
2022/08/11 16:19:34;;;;;;;2.00;1.90;;;26.60;66.30;;;;;;4938114;29;20455;-85
2022/08/11 16:22:04;;;;;;;1.80;1.40;;;26.70;66.20;;;;;;4952173;29;20469;-86
2022/08/11 16:24:32;;;;;;;1.70;1.60;;;26.70;66.40;;;;;;4953574;29;20577;-86
2022/08/11 16:27:01;;;;;;;1.60;1.50;;;26.60;66.30;;;;;;4955306;29;20505;-86
2022/08/11 16:29:31;;;;;;;1.60;1.40;;;26.70;66.20;;;;;;4956044;29;20545;-85
2022/08/11 16:32:17;;;;;;;1.97;1.60;;;26.70;66.20;;;;;;4956393;29;20458;-87
2022/08/11 16:40:22;;;;;;;2.03;1.93;;;26.70;66.10;;;;;;4956682;29;20958;-89
2022/08/11 16:48:23;;;;;;;1.53;1.43;;;26.60;66.00;;;;;;4956337;29;20481;-89
2022/08/11 16:50:52;;;;;;;1.40;1.30;;;26.70;66.10;;;;;;4956294;29;20438;-89
2022/08/11 16:53:19;;;;;;;1.50;1.40;;;26.70;66.10;;;;;;4956128;29;20501;-89
2022/08/11 16:55:48;;;;;;;1.80;1.70;;;26.70;65.80;;;;;;4955969;29;20529;-89
2022/08/11 17:01:02;;;;;;;1.83;1.60;;;26.70;65.80;;;;;;4956114;28;20625;-89
2022/08/11 17:14:44;;;;;;;1.63;1.53;;;26.70;65.80;;;;;;4918200;29;20416;-88
2022/08/11 17:17:15;;;;;;;1.70;1.60;;;26.60;65.80;;;;;;4918131;29;20943;-88
2022/08/11 17:19:48;;;;;;;1.40;1.30;;;26.70;65.80;;;;;;4917958;29;20451;-88
2022/08/11 17:25:04;;;;;;;2.43;1.77;;;26.70;65.70;;;;;;4917985;29;20479;-89
2022/08/11 17:27:32;;;;;;;1.93;1.83;;;26.70;65.70;;;;;;4918192;29;20486;-88
2022/08/11 17:30:03;;;;;;;4.20;1.60;;;26.70;65.60;;;;;;4917722;29;20538;-89
2022/08/11 17:35:30;;;;;;;1.90;1.60;;;26.70;65.50;;;;;;4917653;29;20427;-88
2022/08/11 17:38:03;;;;;;;1.70;1.60;;;26.70;65.60;;;;;;4917663;29;20462;-88
2022/08/11 17:40:32;;;;;;;2.23;2.03;;;26.60;65.20;;;;;;4917665;29;20440;-87
2022/08/11 17:48:34;;;;;;;2.63;1.80;;;26.70;65.60;;;;;;4917608;29;20423;-88
2022/08/11 17:51:05;;;;;;;1.63;1.53;;;26.70;65.30;;;;;;4918245;29;20988;-88
2022/08/11 18:03:27;;;;;;;6.13;1.80;;;26.60;65.20;;;;;;4917791;29;21029;-88
2022/08/11 18:04:43;;;;;;;1.90;1.80;;;26.60;65.30;;;;;;4917222;29;20480;-88
